sensor_id;sensor_type;location;lat;lon;timestamp;pressure;altitude;pressure_sealevel;temperature;humidity
78409;BME280;67697;50.750;-3.270;2023-05-23T00:00:45;101881.44;;;12.77;55.78
78409;BME280;67697;50.750;-3.270;2023-05-23T00:03:10;101875.91;;;14.69;51.37
78409;BME280;67697;50.750;-3.270;2023-05-23T00:05:35;101873.78;;;15.07;49.72
78409;BME280;67697;50.750;-3.270;2023-05-23T00:08:01;101873.05;;;14.76;50.58
78409;BME280;67697;50.750;-3.270;2023-05-23T00:10:26;101873.35;;;15.90;48.77
78409;BME280;67697;50.750;-3.270;2023-05-23T00:12:52;101870.70;;;14.91;49.64
78409;BME280;67697;50.750;-3.270;2023-05-23T00:15:18;101874.72;;;15.18;49.29
78409;BME280;67697;50.750;-3.270;2023-05-23T00:17:44;101879.43;;;15.88;47.49
78409;BME280;67697;50.750;-3.270;2023-05-23T00:20:10;101876.45;;;16.13;47.30
78409;BME280;67697;50.750;-3.270;2023-05-23T00:22:34;101877.21;;;15.86;48.07
78409;BME280;67697;50.750;-3.270;2023-05-23T00:25:00;101879.26;;;15.32;48.91
78409;BME280;67697;50.750;-3.270;2023-05-23T00:27:25;101883.20;;;15.73;48.26
78409;BME280;67697;50.750;-3.270;2023-05-23T00:29:51;101887.48;;;12.80;55.31
78409;BME280;67697;50.750;-3.270;2023-05-23T00:32:17;101887.86;;;12.69;57.05
78409;BME280;67697;50.750;-3.270;2023-05-23T00:34:43;101883.13;;;14.32;53.20
78409;BME280;67697;50.750;-3.270;2023-05-23T00:37:08;101880.55;;;15.04;51.93
78409;BME280;67697;50.750;-3.270;2023-05-23T00:39:34;101877.46;;;14.66;52.85
78409;BME280;67697;50.750;-3.270;2023-05-23T00:42:03;101879.11;;;14.38;53.07
78409;BME280;67697;50.750;-3.270;2023-05-23T00:44:25;101876.32;;;13.67;55.52
78409;BME280;67697;50.750;-3.270;2023-05-23T00:46:53;101873.79;;;13.58;55.82
78409;BME280;67697;50.750;-3.270;2023-05-23T00:49:16;101876.90;;;13.23;56.31
78409;BME280;67697;50.750;-3.270;2023-05-23T00:51:42;101874.26;;;13.71;55.27
78409;BME280;67697;50.750;-3.270;2023-05-23T00:54:08;101882.01;;;12.70;57.49
78409;BME280;67697;50.750;-3.270;2023-05-23T00:56:33;101877.93;;;12.86;57.26
78409;BME280;67697;50.750;-3.270;2023-05-23T00:58:59;101878.03;;;12.63;57.43
78409;BME280;67697;50.750;-3.270;2023-05-23T01:01:24;101881.21;;;12.63;58.38
78409;BME280;67697;50.750;-3.270;2023-05-23T01:03:49;101883.34;;;12.89;57.49
78409;BME280;67697;50.750;-3.270;2023-05-23T01:06:15;101891.71;;;12.91;57.21
78409;BME280;67697;50.750;-3.270;2023-05-23T01:08:42;101890.15;;;12.11;57.50
78409;BME280;67697;50.750;-3.270;2023-05-23T01:11:13;101889.54;;;12.67;57.89
78409;BME280;67697;50.750;-3.270;2023-05-23T01:13:39;101893.36;;;12.54;57.53
78409;BME280;67697;50.750;-3.270;2023-05-23T01:16:04;101900.79;;;13.24;56.19
78409;BME280;67697;50.750;-3.270;2023-05-23T01:18:28;101900.81;;;12.61;57.54
78409;BME280;67697;50.750;-3.270;2023-05-23T01:20:53;101906.94;;;12.75;57.38
78409;BME280;67697;50.750;-3.270;2023-05-23T01:23:32;101905.88;;;12.70;57.25
78409;BME280;67697;50.750;-3.270;2023-05-23T01:25:53;101909.10;;;12.47;58.53
78409;BME280;67697;50.750;-3.270;2023-05-23T01:28:08;101912.17;;;12.12;58.71
78409;BME280;67697;50.750;-3.270;2023-05-23T01:30:35;101912.58;;;12.41;57.37
78409;BME280;67697;50.750;-3.270;2023-05-23T01:32:58;101911.69;;;13.47;54.98
78409;BME280;67697;50.750;-3.270;2023-05-23T01:35:24;101912.86;;;13.53;54.57
78409;BME280;67697;50.750;-3.270;2023-05-23T01:37:49;101912.03;;;13.72;54.03
78409;BME280;67697;50.750;-3.270;2023-05-23T01:40:14;101907.68;;;13.39;55.00
78409;BME280;67697;50.750;-3.270;2023-05-23T01:42:40;101908.55;;;12.99;55.59
78409;BME280;67697;50.750;-3.270;2023-05-23T01:45:07;101903.45;;;12.04;57.34
78409;BME280;67697;50.750;-3.270;2023-05-23T01:47:32;101899.45;;;13.10;55.59
78409;BME280;67697;50.750;-3.270;2023-05-23T01:49:58;101902.49;;;12.69;55.69
78409;BME280;67697;50.750;-3.270;2023-05-23T01:52:23;101902.70;;;13.29;54.13
78409;BME280;67697;50.750;-3.270;2023-05-23T01:54:49;101906.06;;;11.55;58.31
78409;BME280;67697;50.750;-3.270;2023-05-23T01:57:14;101907.94;;;11.80;57.82
78409;BME280;67697;50.750;-3.270;2023-05-23T01:59:40;101907.28;;;12.88;55.41
78409;BME280;67697;50.750;-3.270;2023-05-23T02:02:05;101907.21;;;12.03;56.84
78409;BME280;67697;50.750;-3.270;2023-05-23T02:04:31;101910.71;;;11.13;60.30
78409;BME280;67697;50.750;-3.270;2023-05-23T02:06:57;101909.28;;;11.74;59.24
78409;BME280;67697;50.750;-3.270;2023-05-23T02:09:22;101913.51;;;11.75;59.39
78409;BME280;67697;50.750;-3.270;2023-05-23T02:11:48;101911.60;;;11.23;60.70
78409;BME280;67697;50.750;-3.270;2023-05-23T02:14:13;101910.73;;;11.50;60.01
78409;BME280;67697;50.750;-3.270;2023-05-23T02:16:39;101911.13;;;12.08;58.33
78409;BME280;67697;50.750;-3.270;2023-05-23T02:19:04;101923.25;;;11.75;58.28
78409;BME280;67697;50.750;-3.270;2023-05-23T02:21:30;101931.35;;;12.84;55.17
78409;BME280;67697;50.750;-3.270;2023-05-23T02:23:55;101930.19;;;13.37;54.01
78409;BME280;67697;50.750;-3.270;2023-05-23T02:26:21;101936.29;;;13.10;53.57
78409;BME280;67697;50.750;-3.270;2023-05-23T02:28:47;101931.61;;;12.02;56.03
78409;BME280;67697;50.750;-3.270;2023-05-23T02:31:12;101932.49;;;12.15;56.58
78409;BME280;67697;50.750;-3.270;2023-05-23T02:33:38;101937.34;;;12.58;54.99
78409;BME280;67697;50.750;-3.270;2023-05-23T02:36:04;101941.21;;;12.57;55.12
78409;BME280;67697;50.750;-3.270;2023-05-23T02:38:29;101941.03;;;11.21;58.24
78409;BME280;67697;50.750;-3.270;2023-05-23T02:40:55;101941.09;;;12.15;56.47
78409;BME280;67697;50.750;-3.270;2023-05-23T02:43:21;101942.59;;;11.56;57.32
78409;BME280;67697;50.750;-3.270;2023-05-23T02:45:46;101941.17;;;11.75;57.21
78409;BME280;67697;50.750;-3.270;2023-05-23T02:48:12;101937.55;;;12.32;56.47
78409;BME280;67697;50.750;-3.270;2023-05-23T02:50:38;101938.20;;;11.24;58.71
78409;BME280;67697;50.750;-3.270;2023-05-23T02:53:03;101940.70;;;11.77;57.66
78409;BME280;67697;50.750;-3.270;2023-05-23T02:55:29;101945.11;;;11.73;56.84
78409;BME280;67697;50.750;-3.270;2023-05-23T02:57:55;101953.45;;;10.83;59.23
78409;BME280;67697;50.750;-3.270;2023-05-23T03:00:21;101954.08;;;11.42;57.85
78409;BME280;67697;50.750;-3.270;2023-05-23T03:02:46;101959.98;;;11.93;56.47
78409;BME280;67697;50.750;-3.270;2023-05-23T03:05:12;101962.23;;;11.23;58.16
78409;BME280;67697;50.750;-3.270;2023-05-23T03:07:37;101957.09;;;10.98;57.65
78409;BME280;67697;50.750;-3.270;2023-05-23T03:10:04;101953.20;;;12.92;53.00
78409;BME280;67697;50.750;-3.270;2023-05-23T03:12:28;101948.28;;;12.75;53.07
78409;BME280;67697;50.750;-3.270;2023-05-23T03:14:54;101942.79;;;12.67;52.81
78409;BME280;67697;50.750;-3.270;2023-05-23T03:17:19;101939.52;;;11.93;55.63
78409;BME280;67697;50.750;-3.270;2023-05-23T03:19:45;101940.56;;;11.91;56.18
78409;BME280;67697;50.750;-3.270;2023-05-23T03:22:10;101940.51;;;12.06;56.09
78409;BME280;67697;50.750;-3.270;2023-05-23T03:24:35;101941.38;;;11.24;57.95
78409;BME280;67697;50.750;-3.270;2023-05-23T03:27:01;101941.70;;;10.89;58.40
78409;BME280;67697;50.750;-3.270;2023-05-23T03:29:26;101941.19;;;10.80;59.64
78409;BME280;67697;50.750;-3.270;2023-05-23T03:31:52;101939.14;;;10.59;60.58
78409;BME280;67697;50.750;-3.270;2023-05-23T03:34:17;101939.92;;;10.69;60.53
78409;BME280;67697;50.750;-3.270;2023-05-23T03:36:43;101942.00;;;10.64;60.49
78409;BME280;67697;50.750;-3.270;2023-05-23T03:39:09;101946.96;;;10.82;59.90
78409;BME280;67697;50.750;-3.270;2023-05-23T03:41:34;101951.55;;;10.69;60.64
78409;BME280;67697;50.750;-3.270;2023-05-23T03:44:00;101949.73;;;11.16;59.55
78409;BME280;67697;50.750;-3.270;2023-05-23T03:46:26;101953.20;;;11.08;59.29
78409;BME280;67697;50.750;-3.270;2023-05-23T03:48:51;101955.68;;;11.34;58.48
78409;BME280;67697;50.750;-3.270;2023-05-23T03:51:17;101955.04;;;12.18;56.19
78409;BME280;67697;50.750;-3.270;2023-05-23T03:53:43;101956.86;;;11.54;56.89
78409;BME280;67697;50.750;-3.270;2023-05-23T03:56:08;101954.02;;;12.48;54.09
78409;BME280;67697;50.750;-3.270;2023-05-23T03:58:34;101955.06;;;12.43;54.84
78409;BME280;67697;50.750;-3.270;2023-05-23T04:00:59;101957.69;;;11.42;55.99
78409;BME280;67697;50.750;-3.270;2023-05-23T04:03:25;101958.83;;;12.89;52.55
78409;BME280;67697;50.750;-3.270;2023-05-23T04:05:51;101957.07;;;12.95;52.13
78409;BME280;67697;50.750;-3.270;2023-05-23T04:08:17;101957.99;;;12.71;52.98
78409;BME280;67697;50.750;-3.270;2023-05-23T04:10:43;101959.02;;;13.13;52.18
78409;BME280;67697;50.750;-3.270;2023-05-23T04:13:08;101954.43;;;12.53;53.21
78409;BME280;67697;50.750;-3.270;2023-05-23T04:15:33;101951.51;;;11.96;54.75
78409;BME280;67697;50.750;-3.270;2023-05-23T04:17:59;101950.62;;;12.06;54.36
78409;BME280;67697;50.750;-3.270;2023-05-23T04:20:25;101952.99;;;12.64;53.89
78409;BME280;67697;50.750;-3.270;2023-05-23T04:22:50;101954.99;;;12.97;52.47
78409;BME280;67697;50.750;-3.270;2023-05-23T04:25:16;101956.23;;;13.40;50.93
78409;BME280;67697;50.750;-3.270;2023-05-23T04:27:41;101953.57;;;13.19;51.62
78409;BME280;67697;50.750;-3.270;2023-05-23T04:30:08;101954.92;;;11.60;55.13
78409;BME280;67697;50.750;-3.270;2023-05-23T04:32:33;101956.75;;;13.08;52.45
78409;BME280;67697;50.750;-3.270;2023-05-23T04:34:59;101955.14;;;13.68;50.85
78409;BME280;67697;50.750;-3.270;2023-05-23T04:37:24;101954.54;;;13.29;51.69
78409;BME280;67697;50.750;-3.270;2023-05-23T04:39:49;101953.24;;;13.00;51.19
78409;BME280;67697;50.750;-3.270;2023-05-23T04:42:15;101952.28;;;12.90;52.51
78409;BME280;67697;50.750;-3.270;2023-05-23T04:44:40;101958.48;;;13.03;52.43
78409;BME280;67697;50.750;-3.270;2023-05-23T04:47:06;101958.10;;;12.07;54.98
78409;BME280;67697;50.750;-3.270;2023-05-23T04:49:31;101959.78;;;12.30;53.94
78409;BME280;67697;50.750;-3.270;2023-05-23T04:51:57;101961.97;;;12.27;54.64
78409;BME280;67697;50.750;-3.270;2023-05-23T04:54:23;101963.66;;;12.22;53.70
78409;BME280;67697;50.750;-3.270;2023-05-23T04:56:48;101966.25;;;12.85;53.15
78409;BME280;67697;50.750;-3.270;2023-05-23T04:59:14;101968.43;;;12.31;53.98
78409;BME280;67697;50.750;-3.270;2023-05-23T05:01:40;101970.93;;;12.56;53.59
78409;BME280;67697;50.750;-3.270;2023-05-23T05:04:05;101978.57;;;12.29;55.23
78409;BME280;67697;50.750;-3.270;2023-05-23T05:06:31;101978.82;;;11.85;56.34
78409;BME280;67697;50.750;-3.270;2023-05-23T05:08:57;101981.57;;;11.23;57.29
78409;BME280;67697;50.750;-3.270;2023-05-23T05:11:22;101985.99;;;11.37;57.84
78409;BME280;67697;50.750;-3.270;2023-05-23T05:13:48;101988.22;;;11.85;56.02
78409;BME280;67697;50.750;-3.270;2023-05-23T05:16:14;101995.38;;;11.49;56.98
78409;BME280;67697;50.750;-3.270;2023-05-23T05:18:39;102002.20;;;10.83;58.65
78409;BME280;67697;50.750;-3.270;2023-05-23T05:21:05;102005.60;;;11.30;57.98
78409;BME280;67697;50.750;-3.270;2023-05-23T05:23:31;102008.79;;;11.26;58.25
78409;BME280;67697;50.750;-3.270;2023-05-23T05:25:56;102009.64;;;11.23;58.50
78409;BME280;67697;50.750;-3.270;2023-05-23T05:28:22;102007.83;;;11.85;57.08
78409;BME280;67697;50.750;-3.270;2023-05-23T05:30:47;102006.45;;;11.28;57.43
78409;BME280;67697;50.750;-3.270;2023-05-23T05:33:13;102007.47;;;11.74;56.75
78409;BME280;67697;50.750;-3.270;2023-05-23T05:35:38;102002.45;;;12.25;55.44
78409;BME280;67697;50.750;-3.270;2023-05-23T05:38:04;102002.54;;;12.97;54.20
78409;BME280;67697;50.750;-3.270;2023-05-23T05:40:29;101999.72;;;12.61;54.78
78409;BME280;67697;50.750;-3.270;2023-05-23T05:42:55;102002.90;;;12.05;56.42
78409;BME280;67697;50.750;-3.270;2023-05-23T05:45:20;102001.78;;;12.30;56.21
78409;BME280;67697;50.750;-3.270;2023-05-23T05:47:46;102000.58;;;11.85;56.91
78409;BME280;67697;50.750;-3.270;2023-05-23T05:50:12;101999.37;;;12.38;55.94
78409;BME280;67697;50.750;-3.270;2023-05-23T05:52:38;102000.29;;;12.00;56.65
78409;BME280;67697;50.750;-3.270;2023-05-23T05:55:04;102004.99;;;12.19;55.99
78409;BME280;67697;50.750;-3.270;2023-05-23T05:57:29;102002.33;;;12.57;54.71
78409;BME280;67697;50.750;-3.270;2023-05-23T05:59:54;102003.57;;;12.60;54.94
78409;BME280;67697;50.750;-3.270;2023-05-23T06:02:20;102001.05;;;12.75;54.20
78409;BME280;67697;50.750;-3.270;2023-05-23T06:04:45;102002.31;;;13.82;51.46
78409;BME280;67697;50.750;-3.270;2023-05-23T06:07:10;102000.58;;;12.16;55.75
78409;BME280;67697;50.750;-3.270;2023-05-23T06:09:36;102003.50;;;11.68;56.82
78409;BME280;67697;50.750;-3.270;2023-05-23T06:12:01;102003.96;;;12.63;55.49
78409;BME280;67697;50.750;-3.270;2023-05-23T06:14:26;102003.79;;;12.91;54.41
78409;BME280;67697;50.750;-3.270;2023-05-23T06:16:52;102003.08;;;12.67;55.19
78409;BME280;67697;50.750;-3.270;2023-05-23T06:19:18;102003.43;;;12.71;55.60
78409;BME280;67697;50.750;-3.270;2023-05-23T06:21:44;102006.31;;;12.26;57.87
78409;BME280;67697;50.750;-3.270;2023-05-23T06:24:09;102005.42;;;12.84;56.24
78409;BME280;67697;50.750;-3.270;2023-05-23T06:26:34;102004.59;;;12.40;55.98
78409;BME280;67697;50.750;-3.270;2023-05-23T06:29:00;102011.42;;;11.01;59.51
78409;BME280;67697;50.750;-3.270;2023-05-23T06:31:25;102011.57;;;11.50;57.75
78409;BME280;67697;50.750;-3.270;2023-05-23T06:33:51;102005.81;;;11.82;57.06
78409;BME280;67697;50.750;-3.270;2023-05-23T06:36:16;101999.51;;;12.05;57.02
78409;BME280;67697;50.750;-3.270;2023-05-23T06:38:42;101999.37;;;11.91;56.99
78409;BME280;67697;50.750;-3.270;2023-05-23T06:41:08;101996.26;;;11.91;56.02
78409;BME280;67697;50.750;-3.270;2023-05-23T06:43:33;101991.89;;;12.60;54.58
78409;BME280;67697;50.750;-3.270;2023-05-23T06:45:59;101991.37;;;13.07;54.22
78409;BME280;67697;50.750;-3.270;2023-05-23T06:48:24;101988.52;;;12.69;54.56
78409;BME280;67697;50.750;-3.270;2023-05-23T06:50:50;101992.50;;;13.18;52.64
78409;BME280;67697;50.750;-3.270;2023-05-23T06:53:16;101992.84;;;13.48;52.03
78409;BME280;67697;50.750;-3.270;2023-05-23T06:55:41;101993.09;;;14.31;51.01
78409;BME280;67697;50.750;-3.270;2023-05-23T06:58:06;101991.19;;;14.38;49.77
78409;BME280;67697;50.750;-3.270;2023-05-23T07:00:33;101992.68;;;14.30;49.68
78409;BME280;67697;50.750;-3.270;2023-05-23T07:02:57;101993.35;;;14.25;50.43
78409;BME280;67697;50.750;-3.270;2023-05-23T07:05:23;101993.60;;;13.94;50.44
78409;BME280;67697;50.750;-3.270;2023-05-23T07:07:48;101992.69;;;13.64;50.29
78409;BME280;67697;50.750;-3.270;2023-05-23T07:10:14;101995.52;;;13.17;52.09
78409;BME280;67697;50.750;-3.270;2023-05-23T07:12:39;101999.10;;;14.06;50.21
78409;BME280;67697;50.750;-3.270;2023-05-23T07:15:05;101998.08;;;13.98;48.41
78409;BME280;67697;50.750;-3.270;2023-05-23T07:17:30;101991.96;;;14.76;47.74
78409;BME280;67697;50.750;-3.270;2023-05-23T07:19:56;101997.48;;;13.43;49.79
78409;BME280;67697;50.750;-3.270;2023-05-23T07:22:21;101992.13;;;14.26;49.74
78409;BME280;67697;50.750;-3.270;2023-05-23T07:24:46;101991.19;;;14.83;47.81
78409;BME280;67697;50.750;-3.270;2023-05-23T07:27:12;101990.45;;;15.43;46.89
78409;BME280;67697;50.750;-3.270;2023-05-23T07:29:38;101990.60;;;14.97;46.85
78409;BME280;67697;50.750;-3.270;2023-05-23T07:32:03;101994.39;;;15.01;47.52
78409;BME280;67697;50.750;-3.270;2023-05-23T07:34:29;101992.86;;;14.46;47.49
78409;BME280;67697;50.750;-3.270;2023-05-23T07:36:54;101992.51;;;14.97;46.67
78409;BME280;67697;50.750;-3.270;2023-05-23T07:39:19;101996.62;;;15.09;47.35
78409;BME280;67697;50.750;-3.270;2023-05-23T07:41:45;102000.32;;;15.01;46.72
78409;BME280;67697;50.750;-3.270;2023-05-23T07:44:10;102003.85;;;14.92;46.93
78409;BME280;67697;50.750;-3.270;2023-05-23T07:46:36;102000.67;;;15.21;47.01
78409;BME280;67697;50.750;-3.270;2023-05-23T07:49:02;101995.53;;;14.26;48.12
78409;BME280;67697;50.750;-3.270;2023-05-23T07:51:27;101994.69;;;14.86;46.47
78409;BME280;67697;50.750;-3.270;2023-05-23T07:53:53;101994.84;;;14.48;47.96
78409;BME280;67697;50.750;-3.270;2023-05-23T07:56:18;101995.99;;;15.84;44.19
78409;BME280;67697;50.750;-3.270;2023-05-23T07:58:44;101996.75;;;15.04;45.59
78409;BME280;67697;50.750;-3.270;2023-05-23T08:01:10;101997.82;;;15.79;44.50
78409;BME280;67697;50.750;-3.270;2023-05-23T08:03:36;102004.89;;;14.14;47.28
78409;BME280;67697;50.750;-3.270;2023-05-23T08:06:00;102002.34;;;15.69;44.34
78409;BME280;67697;50.750;-3.270;2023-05-23T08:08:26;102000.82;;;15.12;45.13
78409;BME280;67697;50.750;-3.270;2023-05-23T08:10:51;102004.01;;;15.69;44.52
78409;BME280;67697;50.750;-3.270;2023-05-23T08:13:16;102002.28;;;15.95;43.81
78409;BME280;67697;50.750;-3.270;2023-05-23T08:15:42;102005.60;;;14.76;46.04
78409;BME280;67697;50.750;-3.270;2023-05-23T08:18:07;102009.29;;;15.51;45.54
78409;BME280;67697;50.750;-3.270;2023-05-23T08:20:33;102012.11;;;15.02;45.03
78409;BME280;67697;50.750;-3.270;2023-05-23T08:22:59;102013.82;;;15.63;43.95
78409;BME280;67697;50.750;-3.270;2023-05-23T08:25:24;102014.38;;;14.99;45.69
78409;BME280;67697;50.750;-3.270;2023-05-23T08:27:49;102016.04;;;14.71;45.83
78409;BME280;67697;50.750;-3.270;2023-05-23T08:30:15;102019.99;;;15.09;46.13
78409;BME280;67697;50.750;-3.270;2023-05-23T08:32:41;102031.17;;;14.73;47.37
78409;BME280;67697;50.750;-3.270;2023-05-23T08:35:07;102025.42;;;14.85;46.57
78409;BME280;67697;50.750;-3.270;2023-05-23T08:37:33;102026.27;;;15.55;45.12
78409;BME280;67697;50.750;-3.270;2023-05-23T08:39:57;102020.93;;;15.57;45.39
78409;BME280;67697;50.750;-3.270;2023-05-23T08:42:23;102019.77;;;15.29;45.27
78409;BME280;67697;50.750;-3.270;2023-05-23T08:44:48;102021.03;;;14.43;46.53
78409;BME280;67697;50.750;-3.270;2023-05-23T08:47:15;102021.70;;;15.74;45.46
78409;BME280;67697;50.750;-3.270;2023-05-23T08:49:39;102019.43;;;14.79;45.47
78409;BME280;67697;50.750;-3.270;2023-05-23T08:52:07;102018.38;;;15.76;44.36
78409;BME280;67697;50.750;-3.270;2023-05-23T08:54:30;102013.54;;;17.03;41.91
78409;BME280;67697;50.750;-3.270;2023-05-23T08:56:56;102018.27;;;16.82;42.55
78409;BME280;67697;50.750;-3.270;2023-05-23T08:59:21;102019.58;;;17.00;43.40
78409;BME280;67697;50.750;-3.270;2023-05-23T09:01:49;102025.41;;;14.69;49.08
78409;BME280;67697;50.750;-3.270;2023-05-23T09:04:12;102020.50;;;16.37;44.15
78409;BME280;67697;50.750;-3.270;2023-05-23T09:06:38;102023.78;;;16.50;43.37
78409;BME280;67697;50.750;-3.270;2023-05-23T09:09:03;102024.42;;;16.56;43.36
78409;BME280;67697;50.750;-3.270;2023-05-23T09:11:30;102025.40;;;16.73;43.40
78409;BME280;67697;50.750;-3.270;2023-05-23T09:13:54;102027.92;;;15.39;45.59
78409;BME280;67697;50.750;-3.270;2023-05-23T09:16:20;102030.05;;;15.67;45.79
78409;BME280;67697;50.750;-3.270;2023-05-23T09:18:45;102024.19;;;16.26;44.48
78409;BME280;67697;50.750;-3.270;2023-05-23T09:21:13;102027.62;;;15.87;45.01
78409;BME280;67697;50.750;-3.270;2023-05-23T09:23:38;102025.97;;;15.86;44.89
78409;BME280;67697;50.750;-3.270;2023-05-23T09:26:02;102018.93;;;16.15;45.01
78409;BME280;67697;50.750;-3.270;2023-05-23T09:28:27;102023.76;;;16.18;44.55
78409;BME280;67697;50.750;-3.270;2023-05-23T09:30:57;102022.73;;;15.42;45.54
78409;BME280;67697;50.750;-3.270;2023-05-23T09:33:18;102025.16;;;15.90;45.01
78409;BME280;67697;50.750;-3.270;2023-05-23T09:35:44;102023.70;;;15.62;46.91
78409;BME280;67697;50.750;-3.270;2023-05-23T09:38:09;102019.63;;;16.22;45.17
78409;BME280;67697;50.750;-3.270;2023-05-23T09:40:35;102024.67;;;16.91;43.84
78409;BME280;67697;50.750;-3.270;2023-05-23T09:43:02;102027.09;;;15.85;44.84
78409;BME280;67697;50.750;-3.270;2023-05-23T09:45:29;102022.80;;;17.05;43.65
78409;BME280;67697;50.750;-3.270;2023-05-23T09:47:52;102023.02;;;17.13;43.19
78409;BME280;67697;50.750;-3.270;2023-05-23T09:50:17;102019.52;;;16.42;44.22
78409;BME280;67697;50.750;-3.270;2023-05-23T09:52:42;102018.57;;;16.93;43.40
78409;BME280;67697;50.750;-3.270;2023-05-23T09:55:09;102020.11;;;16.33;44.80
78409;BME280;67697;50.750;-3.270;2023-05-23T09:57:34;102021.22;;;17.40;42.08
78409;BME280;67697;50.750;-3.270;2023-05-23T10:00:00;102017.84;;;17.84;41.60
78409;BME280;67697;50.750;-3.270;2023-05-23T10:04:51;102015.08;;;16.51;43.82
78409;BME280;67697;50.750;-3.270;2023-05-23T10:07:19;102018.88;;;15.83;46.05
78409;BME280;67697;50.750;-3.270;2023-05-23T10:09:47;102016.07;;;17.07;42.93
78409;BME280;67697;50.750;-3.270;2023-05-23T10:14:36;102023.03;;;16.51;43.91
78409;BME280;67697;50.750;-3.270;2023-05-23T10:17:02;102030.38;;;17.22;43.55
78409;BME280;67697;50.750;-3.270;2023-05-23T10:19:26;102034.05;;;17.62;42.44
78409;BME280;67697;50.750;-3.270;2023-05-23T10:21:52;102036.25;;;17.45;42.09
78409;BME280;67697;50.750;-3.270;2023-05-23T10:24:14;102037.94;;;17.18;42.48
78409;BME280;67697;50.750;-3.270;2023-05-23T10:26:41;102038.84;;;17.53;42.56
78409;BME280;67697;50.750;-3.270;2023-05-23T10:29:06;102036.05;;;17.94;41.17
78409;BME280;67697;50.750;-3.270;2023-05-23T10:31:31;102028.87;;;16.01;44.24
78409;BME280;67697;50.750;-3.270;2023-05-23T10:34:01;102023.03;;;16.87;44.65
78409;BME280;67697;50.750;-3.270;2023-05-23T10:36:26;102022.71;;;17.96;42.84
78409;BME280;67697;50.750;-3.270;2023-05-23T10:38:53;102016.33;;;17.67;43.12
78409;BME280;67697;50.750;-3.270;2023-05-23T10:41:20;102016.30;;;16.25;45.03
78409;BME280;67697;50.750;-3.270;2023-05-23T10:43:46;102011.11;;;15.96;45.53
78409;BME280;67697;50.750;-3.270;2023-05-23T10:46:04;102013.81;;;17.29;44.20
78409;BME280;67697;50.750;-3.270;2023-05-23T10:48:34;102012.35;;;17.44;42.46
78409;BME280;67697;50.750;-3.270;2023-05-23T10:51:03;102017.32;;;18.14;41.78
78409;BME280;67697;50.750;-3.270;2023-05-23T10:53:22;102015.62;;;17.43;43.35
78409;BME280;67697;50.750;-3.270;2023-05-23T10:55:48;102013.48;;;16.77;45.60
78409;BME280;67697;50.750;-3.270;2023-05-23T10:58:14;102020.39;;;18.07;42.01
78409;BME280;67697;50.750;-3.270;2023-05-23T11:00:36;102015.19;;;16.37;43.22
78409;BME280;67697;50.750;-3.270;2023-05-23T11:03:04;102009.23;;;19.63;39.14
78409;BME280;67697;50.750;-3.270;2023-05-23T11:05:28;102014.50;;;19.00;39.54
78409;BME280;67697;50.750;-3.270;2023-05-23T11:08:05;102015.68;;;19.89;38.48
78409;BME280;67697;50.750;-3.270;2023-05-23T11:10:18;102014.87;;;20.28;36.85
78409;BME280;67697;50.750;-3.270;2023-05-23T11:12:44;102014.53;;;19.69;38.51
78409;BME280;67697;50.750;-3.270;2023-05-23T11:15:18;102019.56;;;18.44;40.41
78409;BME280;67697;50.750;-3.270;2023-05-23T11:17:34;102014.13;;;18.54;40.04
78409;BME280;67697;50.750;-3.270;2023-05-23T11:20:03;102011.21;;;18.21;39.78
78409;BME280;67697;50.750;-3.270;2023-05-23T11:22:27;102013.25;;;18.25;43.92
78409;BME280;67697;50.750;-3.270;2023-05-23T11:24:52;102004.16;;;19.95;39.55
78409;BME280;67697;50.750;-3.270;2023-05-23T11:27:16;102002.13;;;19.63;39.99
78409;BME280;67697;50.750;-3.270;2023-05-23T11:29:42;102001.71;;;21.39;37.59
78409;BME280;67697;50.750;-3.270;2023-05-23T11:32:11;102007.10;;;21.62;35.49
78409;BME280;67697;50.750;-3.270;2023-05-23T11:34:33;102011.33;;;19.26;38.72
78409;BME280;67697;50.750;-3.270;2023-05-23T11:36:58;102011.49;;;19.20;39.30
78409;BME280;67697;50.750;-3.270;2023-05-23T11:39:23;102014.15;;;19.44;38.97
78409;BME280;67697;50.750;-3.270;2023-05-23T11:41:58;102014.05;;;18.83;40.07
78409;BME280;67697;50.750;-3.270;2023-05-23T11:44:14;102017.26;;;17.44;41.43
78409;BME280;67697;50.750;-3.270;2023-05-23T11:46:40;102013.89;;;19.01;40.26
78409;BME280;67697;50.750;-3.270;2023-05-23T11:49:10;102013.33;;;17.65;42.08
78409;BME280;67697;50.750;-3.270;2023-05-23T11:51:30;102011.20;;;17.62;43.51
78409;BME280;67697;50.750;-3.270;2023-05-23T11:54:00;102005.49;;;19.47;39.16
78409;BME280;67697;50.750;-3.270;2023-05-23T11:56:21;102006.04;;;18.51;40.42
78409;BME280;67697;50.750;-3.270;2023-05-23T11:58:46;102007.19;;;19.11;40.74
78409;BME280;67697;50.750;-3.270;2023-05-23T12:01:12;102008.22;;;19.79;38.68
78409;BME280;67697;50.750;-3.270;2023-05-23T12:03:45;102010.70;;;19.36;39.96
78409;BME280;67697;50.750;-3.270;2023-05-23T12:06:03;102012.86;;;20.48;40.06
78409;BME280;67697;50.750;-3.270;2023-05-23T12:08:28;102020.55;;;18.33;41.61
78409;BME280;67697;50.750;-3.270;2023-05-23T12:10:57;102018.88;;;18.80;40.93
78409;BME280;67697;50.750;-3.270;2023-05-23T12:13:19;102021.05;;;19.92;38.77
78409;BME280;67697;50.750;-3.270;2023-05-23T12:15:45;102019.09;;;18.68;39.79
78409;BME280;67697;50.750;-3.270;2023-05-23T12:18:11;102014.44;;;20.42;36.76
78409;BME280;67697;50.750;-3.270;2023-05-23T12:20:36;102007.10;;;20.93;36.73
78409;BME280;67697;50.750;-3.270;2023-05-23T12:23:03;102004.20;;;22.14;36.99
78409;BME280;67697;50.750;-3.270;2023-05-23T12:25:26;102010.17;;;17.55;41.41
78409;BME280;67697;50.750;-3.270;2023-05-23T12:27:53;102004.49;;;16.88;44.08
78409;BME280;67697;50.750;-3.270;2023-05-23T12:30:17;102005.39;;;18.13;42.51
78409;BME280;67697;50.750;-3.270;2023-05-23T12:32:44;102005.28;;;18.45;40.89
78409;BME280;67697;50.750;-3.270;2023-05-23T12:35:10;102008.17;;;19.37;39.92